Time;durP1;ratioP1;P1;durP2;ratioP2;P2;SDS_P1;SDS_P2;PMS_P1;PMS_P2;Temp;Humidity;BMP_temperature;BMP_pressure;BME280_temperature;BME280_humidity;BME280_pressure;Samples;Min_cycle;Max_cycle;Signal;HPM_P1;HPM_P2
2023/08/14 00:01:40;;;;;;;;;10.00;8.00;;;;;;;;5112180;28;8780;-67
2023/08/14 00:04:05;;;;;;;;;7.00;7.00;;;;;;;;5112281;28;8904;-67
2023/08/14 00:06:30;;;;;;;;;8.33;8.33;;;;;;;;5112024;28;8792;-67
2023/08/14 00:08:55;;;;;;;;;9.00;7.00;;;;;;;;5112368;28;8848;-67
2023/08/14 00:11:21;;;;;;;;;8.33;7.67;;;;;;;;5112098;28;8780;-67
2023/08/14 00:13:50;;;;;;;;;7.00;7.00;;;;;;;;5112041;28;8817;-65
2023/08/14 00:16:16;;;;;;;;;8.00;7.50;;;;;;;;5111708;28;8910;-65
2023/08/14 00:18:41;;;;;;;;;9.00;7.33;;;;;;;;5110948;28;8864;-67
2023/08/14 00:21:06;;;;;;;;;10.00;8.00;;;;;;;;5111950;28;8799;-66
2023/08/14 00:23:31;;;;;;;;;11.33;10.00;;;;;;;;5111622;28;9406;-66
2023/08/14 00:25:57;;;;;;;;;9.67;8.00;;;;;;;;5111534;28;8866;-66
2023/08/14 00:28:22;;;;;;;;;10.67;10.67;;;;;;;;5111503;28;8804;-65
2023/08/14 00:30:50;;;;;;;;;13.00;11.00;;;;;;;;5111646;28;8776;-66
2023/08/14 00:33:15;;;;;;;;;9.25;9.00;;;;;;;;5111336;28;9528;-65
2023/08/14 00:35:40;;;;;;;;;12.33;10.00;;;;;;;;5111286;27;8840;-66
2023/08/14 00:38:06;;;;;;;;;11.00;10.67;;;;;;;;5111072;28;8905;-66
2023/08/14 00:40:31;;;;;;;;;12.00;12.00;;;;;;;;5092783;28;8800;-66
2023/08/14 00:42:56;;;;;;;;;13.00;10.00;;;;;;;;5111179;28;8788;-66
2023/08/14 00:45:21;;;;;;;;;9.00;9.00;;;;;;;;5092868;28;8800;-66
2023/08/14 00:47:47;;;;;;;;;9.67;9.33;;;;;;;;5111272;28;8810;-66
2023/08/14 00:50:12;;;;;;;;;13.33;10.33;;;;;;;;5111097;28;8818;-66
2023/08/14 00:52:40;;;;;;;;;12.33;12.33;;;;;;;;5110864;28;8823;-66
2023/08/14 00:55:08;;;;;;;;;13.25;9.50;;;;;;;;5092458;28;8828;-66
2023/08/14 00:57:34;;;;;;;;;9.25;9.00;;;;;;;;5111112;28;8841;-66
2023/08/14 01:00:00;;;;;;;;;12.75;10.75;;;;;;;;5111072;28;8829;-67
2023/08/14 01:02:28;;;;;;;;;10.33;9.00;;;;;;;;5110848;28;9538;-67
2023/08/14 01:04:53;;;;;;;;;11.50;11.50;;;;;;;;5111089;28;8799;-67
2023/08/14 01:07:19;;;;;;;;;10.33;9.00;;;;;;;;5110918;28;8896;-66
2023/08/14 01:09:45;;;;;;;;;12.00;12.00;;;;;;;;5126093;22;8892;-63
2023/08/14 01:12:10;;;;;;;;;13.00;10.00;;;;;;;;5111839;28;8789;-63
2023/08/14 01:14:37;;;;;;;;;11.67;11.67;;;;;;;;5111690;28;8817;-63
2023/08/14 01:17:08;;;;;;;;;13.25;13.00;;;;;;;;5111722;28;8789;-63
2023/08/14 01:19:39;;;;;;;;;12.33;12.33;;;;;;;;5111712;28;8786;-63
2023/08/14 01:22:16;;;;;;;;;11.75;11.75;;;;;;;;5111306;28;8863;-64
2023/08/14 01:24:41;;;;;;;;;10.33;9.67;;;;;;;;5111623;28;8813;-63
2023/08/14 01:27:08;;;;;;;;;12.00;11.33;;;;;;;;5111532;28;8855;-63
2023/08/14 01:29:33;;;;;;;;;8.67;8.67;;;;;;;;5111340;28;8781;-63
2023/08/14 01:31:59;;;;;;;;;12.67;11.67;;;;;;;;5111411;28;8882;-63
2023/08/14 01:34:24;;;;;;;;;12.00;12.00;;;;;;;;5111282;28;8939;-63
2023/08/14 01:37:07;;;;;;;;;12.00;12.00;;;;;;;;5109956;28;8836;-63
2023/08/14 01:39:40;;;;;;;;;12.00;12.00;;;;;;;;5111386;28;8770;-63
2023/08/14 01:42:17;;;;;;;;;13.33;11.33;;;;;;;;5111313;28;9355;-63
2023/08/14 01:44:43;;;;;;;;;9.50;8.25;;;;;;;;5111291;28;8872;-63
2023/08/14 01:47:12;;;;;;;;;12.67;12.67;;;;;;;;5109926;28;8935;-63
2023/08/14 01:49:37;;;;;;;;;12.00;11.33;;;;;;;;5111275;28;8898;-63
2023/08/14 01:52:03;;;;;;;;;15.33;14.00;;;;;;;;5109757;28;9028;-63
2023/08/14 01:54:29;;;;;;;;;7.00;7.00;;;;;;;;5111215;28;8939;-63
2023/08/14 01:56:55;;;;;;;;;9.67;9.67;;;;;;;;5111179;28;9947;-63
2023/08/14 01:59:25;;;;;;;;;13.00;12.00;;;;;;;;5111174;28;8774;-63
2023/08/14 02:01:51;;;;;;;;;11.33;11.33;;;;;;;;5111096;28;8990;-63
2023/08/14 02:04:16;;;;;;;;;12.00;12.00;;;;;;;;5111281;28;9134;-63
2023/08/14 02:06:41;;;;;;;;;11.00;11.00;;;;;;;;5111156;28;8912;-63
2023/08/14 02:09:07;;;;;;;;;13.00;11.67;;;;;;;;5111451;28;8813;-63
2023/08/14 02:11:33;;;;;;;;;8.67;8.67;;;;;;;;5109788;28;8806;-63
2023/08/14 02:13:59;;;;;;;;;9.67;9.67;;;;;;;;5109613;28;8998;-63
2023/08/14 02:16:24;;;;;;;;;9.67;9.00;;;;;;;;5110888;28;9235;-63
2023/08/14 02:18:49;;;;;;;;;11.00;9.67;;;;;;;;5110975;28;8902;-63
2023/08/14 02:21:16;;;;;;;;;11.67;11.33;;;;;;;;5110780;28;8777;-63
2023/08/14 02:23:41;;;;;;;;;11.67;11.67;;;;;;;;5109395;28;9698;-63
2023/08/14 02:26:06;;;;;;;;;11.00;11.00;;;;;;;;5110697;28;9331;-64
2023/08/14 02:28:31;;;;;;;;;11.00;11.00;;;;;;;;5110897;28;8790;-64
2023/08/14 02:30:57;;;;;;;;;12.33;11.33;;;;;;;;5110620;28;8848;-64
2023/08/14 02:33:22;;;;;;;;;11.25;10.00;;;;;;;;5110953;28;8884;-63
2023/08/14 02:35:47;;;;;;;;;12.67;12.00;;;;;;;;5110748;28;8910;-63
2023/08/14 02:38:13;;;;;;;;;9.67;9.67;;;;;;;;5110165;28;8936;-63
2023/08/14 02:40:38;;;;;;;;;15.00;13.50;;;;;;;;5111564;28;9546;-64
2023/08/14 02:43:04;;;;;;;;;13.00;12.00;;;;;;;;5114532;28;8812;-64
2023/08/14 02:45:29;;;;;;;;;11.00;10.00;;;;;;;;5114345;28;8828;-63
2023/08/14 02:47:54;;;;;;;;;10.00;10.00;;;;;;;;5114535;27;8823;-63
2023/08/14 02:50:23;;;;;;;;;11.00;11.00;;;;;;;;5114339;28;8812;-63
2023/08/14 02:52:48;;;;;;;;;9.67;8.33;;;;;;;;5114126;28;8938;-62
2023/08/14 02:55:14;;;;;;;;;13.00;10.75;;;;;;;;5114328;28;9286;-63
2023/08/14 02:57:39;;;;;;;;;13.00;12.00;;;;;;;;5114295;28;8884;-63
2023/08/14 03:00:05;;;;;;;;;8.00;8.00;;;;;;;;5114224;28;9592;-63
2023/08/14 03:02:30;;;;;;;;;11.67;11.00;;;;;;;;5114074;28;8797;-63
2023/08/14 03:04:56;;;;;;;;;13.75;13.75;;;;;;;;5114002;28;9309;-63
2023/08/14 03:07:21;;;;;;;;;12.00;11.00;;;;;;;;5113920;28;8813;-63
2023/08/14 03:09:46;;;;;;;;;11.00;11.00;;;;;;;;5113906;28;8813;-63
2023/08/14 03:12:11;;;;;;;;;11.67;11.67;;;;;;;;5114014;28;8770;-63
2023/08/14 03:14:37;;;;;;;;;11.50;11.25;;;;;;;;5114013;28;8801;-63
2023/08/14 03:17:02;;;;;;;;;10.75;10.75;;;;;;;;5114168;28;8813;-63
2023/08/14 03:19:27;;;;;;;;;12.00;11.00;;;;;;;;5113983;28;8802;-63
2023/08/14 03:21:53;;;;;;;;;12.33;12.33;;;;;;;;5113539;28;8800;-63
2023/08/14 03:24:18;;;;;;;;;12.00;11.25;;;;;;;;5113634;28;8833;-63
2023/08/14 03:26:44;;;;;;;;;10.00;10.00;;;;;;;;5113731;28;8786;-63
2023/08/14 03:29:09;;;;;;;;;10.33;10.33;;;;;;;;5113718;28;8838;-63
2023/08/14 03:31:34;;;;;;;;;11.00;11.00;;;;;;;;5113531;28;8930;-63
2023/08/14 03:34:00;;;;;;;;;11.50;11.00;;;;;;;;5113605;28;8789;-63
2023/08/14 03:36:25;;;;;;;;;12.00;12.00;;;;;;;;5113733;28;8809;-63
2023/08/14 03:38:50;;;;;;;;;12.25;11.25;;;;;;;;5112072;28;8802;-63
2023/08/14 03:41:17;;;;;;;;;14.00;13.75;;;;;;;;5113405;28;8786;-63
2023/08/14 03:43:43;;;;;;;;;12.75;12.75;;;;;;;;5113317;28;8915;-63
2023/08/14 03:46:08;;;;;;;;;14.25;12.75;;;;;;;;5113284;28;9484;-63
2023/08/14 03:48:33;;;;;;;;;10.75;10.75;;;;;;;;5113446;28;8804;-63
2023/08/14 03:50:59;;;;;;;;;13.50;12.75;;;;;;;;5113126;28;8876;-63
2023/08/14 03:53:24;;;;;;;;;14.50;13.25;;;;;;;;5112922;28;8769;-63
2023/08/14 03:55:49;;;;;;;;;12.00;11.25;;;;;;;;5113365;28;8840;-63
2023/08/14 03:58:15;;;;;;;;;11.75;11.00;;;;;;;;5113037;28;8788;-63
2023/08/14 04:00:40;;;;;;;;;11.75;11.25;;;;;;;;5112972;28;8789;-63
2023/08/14 04:03:05;;;;;;;;;12.50;11.75;;;;;;;;5112996;28;8794;-63
2023/08/14 04:05:31;;;;;;;;;14.25;13.50;;;;;;;;5112899;28;8825;-63
2023/08/14 04:07:56;;;;;;;;;14.25;13.25;;;;;;;;5113056;28;8840;-63
2023/08/14 04:10:21;;;;;;;;;14.00;13.00;;;;;;;;5112857;28;8789;-63
2023/08/14 04:12:46;;;;;;;;;14.50;13.75;;;;;;;;5112681;28;8828;-63
2023/08/14 04:15:15;;;;;;;;;14.25;14.25;;;;;;;;5112771;28;8789;-63
2023/08/14 04:17:40;;;;;;;;;15.25;15.00;;;;;;;;5112653;28;8789;-63
2023/08/14 04:20:06;;;;;;;;;14.50;14.50;;;;;;;;5112624;28;10345;-63
2023/08/14 04:22:31;;;;;;;;;14.00;13.00;;;;;;;;5112423;28;8778;-63
2023/08/14 04:24:57;;;;;;;;;16.00;15.00;;;;;;;;5112461;28;8917;-63
2023/08/14 04:27:22;;;;;;;;;18.50;18.00;;;;;;;;5112468;28;8798;-63
2023/08/14 04:29:47;;;;;;;;;12.00;12.00;;;;;;;;5112485;28;8873;-63
2023/08/14 04:32:12;;;;;;;;;14.25;14.25;;;;;;;;5112568;28;8777;-63
2023/08/14 04:34:38;;;;;;;;;15.50;15.50;;;;;;;;5112397;28;8813;-63
2023/08/14 04:37:03;;;;;;;;;15.75;15.75;;;;;;;;5112126;28;9531;-63
2023/08/14 04:39:28;;;;;;;;;14.25;14.25;;;;;;;;5111033;28;8833;-63
2023/08/14 04:41:54;;;;;;;;;14.00;14.00;;;;;;;;5111003;28;8936;-63
2023/08/14 04:44:19;;;;;;;;;15.00;14.50;;;;;;;;5112047;28;9508;-63
2023/08/14 04:46:45;;;;;;;;;16.75;15.50;;;;;;;;5112123;28;8781;-63
2023/08/14 04:49:10;;;;;;;;;15.75;15.75;;;;;;;;5112134;28;8793;-63
2023/08/14 04:51:35;;;;;;;;;16.00;16.00;;;;;;;;5111956;28;8823;-63
2023/08/14 04:54:01;;;;;;;;;15.50;15.00;;;;;;;;5111865;28;9583;-63
2023/08/14 04:56:26;;;;;;;;;15.50;15.50;;;;;;;;5111987;28;8782;-63
2023/08/14 04:58:52;;;;;;;;;15.75;15.75;;;;;;;;5111885;28;8781;-63
2023/08/14 05:01:17;;;;;;;;;15.25;15.00;;;;;;;;5110513;28;8916;-63
2023/08/14 05:03:43;;;;;;;;;15.75;14.50;;;;;;;;5111236;28;10870;-63
2023/08/14 05:06:08;;;;;;;;;16.50;15.75;;;;;;;;5110430;28;8841;-63
2023/08/14 05:08:33;;;;;;;;;15.00;14.00;;;;;;;;5112064;28;8829;-63
2023/08/14 05:10:59;;;;;;;;;18.00;16.75;;;;;;;;5111684;28;9487;-63
2023/08/14 05:13:24;;;;;;;;;18.75;16.00;;;;;;;;5111609;28;8785;-63
2023/08/14 05:15:50;;;;;;;;;15.75;15.25;;;;;;;;5111578;28;8785;-63
2023/08/14 05:18:16;;;;;;;;;14.25;14.25;;;;;;;;5111745;28;9499;-63
2023/08/14 05:20:45;;;;;;;;;16.00;15.25;;;;;;;;5111428;27;10021;-63
2023/08/14 05:23:10;;;;;;;;;17.00;15.75;;;;;;;;5111389;28;8843;-63
2023/08/14 05:25:36;;;;;;;;;16.00;16.00;;;;;;;;5111477;28;9710;-63
2023/08/14 05:28:01;;;;;;;;;14.75;14.00;;;;;;;;5111329;28;8782;-63
2023/08/14 05:30:27;;;;;;;;;14.00;14.00;;;;;;;;5111411;28;9511;-63
2023/08/14 05:32:52;;;;;;;;;16.75;15.50;;;;;;;;5111541;28;8789;-63
2023/08/14 05:35:22;;;;;;;;;14.00;14.00;;;;;;;;5111279;28;8843;-63
2023/08/14 05:37:48;;;;;;;;;15.00;15.00;;;;;;;;5111229;28;9093;-63
2023/08/14 05:40:14;;;;;;;;;15.50;15.00;;;;;;;;5111185;28;9860;-63
2023/08/14 05:42:39;;;;;;;;;15.00;14.75;;;;;;;;5111065;28;8814;-63
2023/08/14 05:45:05;;;;;;;;;17.00;15.50;;;;;;;;5111334;28;10073;-63
2023/08/14 05:47:30;;;;;;;;;16.00;15.75;;;;;;;;5111195;28;8824;-63
2023/08/14 05:49:55;;;;;;;;;14.75;14.75;;;;;;;;5111141;28;8789;-63
2023/08/14 05:52:21;;;;;;;;;15.50;15.00;;;;;;;;5110844;28;8894;-63
2023/08/14 05:54:46;;;;;;;;;15.25;15.00;;;;;;;;5111112;28;8793;-63
2023/08/14 05:57:11;;;;;;;;;19.25;17.00;;;;;;;;5111032;28;8886;-63
2023/08/14 05:59:37;;;;;;;;;15.25;15.00;;;;;;;;5111220;28;8880;-63
2023/08/14 06:02:02;;;;;;;;;16.00;16.00;;;;;;;;5110923;28;8813;-61
2023/08/14 06:04:27;;;;;;;;;19.75;19.00;;;;;;;;5110831;28;8868;-65
2023/08/14 06:06:53;;;;;;;;;19.75;16.75;;;;;;;;5110878;28;8808;-63
2023/08/14 06:09:19;;;;;;;;;17.00;17.00;;;;;;;;5110779;28;8867;-62
2023/08/14 06:11:44;;;;;;;;;17.25;17.00;;;;;;;;5109115;28;8931;-62
2023/08/14 06:14:10;;;;;;;;;17.50;16.25;;;;;;;;5110632;28;10080;-62
2023/08/14 06:16:35;;;;;;;;;20.00;20.00;;;;;;;;5111995;28;8935;-62
2023/08/14 06:19:00;;;;;;;;;20.00;19.50;;;;;;;;5114824;28;8801;-63
2023/08/14 06:21:25;;;;;;;;;18.75;17.50;;;;;;;;5108432;28;8804;-62
2023/08/14 06:23:51;;;;;;;;;23.00;21.75;;;;;;;;5103839;28;8825;-63
2023/08/14 06:26:16;;;;;;;;;18.75;18.00;;;;;;;;5104650;28;8788;-63
2023/08/14 06:28:41;;;;;;;;;17.00;17.00;;;;;;;;5102775;28;8800;-63
2023/08/14 06:31:07;;;;;;;;;19.00;19.00;;;;;;;;5101737;28;8792;-61
2023/08/14 06:33:32;;;;;;;;;19.00;17.00;;;;;;;;5094167;28;8796;-63
2023/08/14 06:35:57;;;;;;;;;21.50;20.00;;;;;;;;5096753;28;8937;-63
2023/08/14 06:38:23;;;;;;;;;18.75;17.00;;;;;;;;5114323;27;8876;-63
2023/08/14 06:40:48;;;;;;;;;23.75;20.25;;;;;;;;5114236;28;8806;-62
2023/08/14 06:43:13;;;;;;;;;16.50;15.00;;;;;;;;5114472;28;8777;-62
2023/08/14 06:45:39;;;;;;;;;31.75;28.75;;;;;;;;5114091;28;8789;-62
2023/08/14 06:48:04;;;;;;;;;24.25;24.25;;;;;;;;5114220;28;8801;-62
2023/08/14 06:50:29;;;;;;;;;17.00;17.00;;;;;;;;5111669;28;8801;-62
2023/08/14 06:52:55;;;;;;;;;26.25;23.00;;;;;;;;5104926;28;8802;-62
2023/08/14 06:55:20;;;;;;;;;17.00;17.00;;;;;;;;5104440;28;8901;-61
2023/08/14 06:57:46;;;;;;;;;17.00;17.00;;;;;;;;5108613;28;8829;-63
2023/08/14 07:00:14;;;;;;;;;27.75;25.75;;;;;;;;5113883;28;8781;-62
2023/08/14 07:02:40;;;;;;;;;20.25;20.25;;;;;;;;5113858;28;8794;-62
2023/08/14 07:05:05;;;;;;;;;20.00;19.00;;;;;;;;5114054;28;9567;-66
2023/08/14 07:07:31;;;;;;;;;16.25;16.25;;;;;;;;5111736;28;8892;-64
2023/08/14 07:09:56;;;;;;;;;27.50;26.50;;;;;;;;5101418;28;8894;-63
2023/08/14 07:12:22;;;;;;;;;15.33;14.67;;;;;;;;5093679;28;8839;-63
2023/08/14 07:14:47;;;;;;;;;15.67;15.67;;;;;;;;5093384;28;8796;-63
2023/08/14 07:17:12;;;;;;;;;19.00;18.00;;;;;;;;5093322;28;8780;-63
2023/08/14 07:19:38;;;;;;;;;17.75;17.50;;;;;;;;5093556;28;9967;-63
2023/08/14 07:22:04;;;;;;;;;23.50;22.75;;;;;;;;5093129;28;8791;-62
2023/08/14 07:24:29;;;;;;;;;27.00;25.00;;;;;;;;5091823;28;9512;-63
2023/08/14 07:26:54;;;;;;;;;28.00;26.00;;;;;;;;5092333;28;8772;-66
2023/08/14 07:29:20;;;;;;;;;21.75;21.75;;;;;;;;5092857;28;8796;-68
2023/08/14 07:31:45;;;;;;;;;18.00;18.00;;;;;;;;5108853;28;8814;-64
2023/08/14 07:34:10;;;;;;;;;18.33;18.00;;;;;;;;5113193;28;8793;-67
2023/08/14 07:36:35;;;;;;;;;23.00;21.00;;;;;;;;5119794;27;8787;-65
2023/08/14 07:39:01;;;;;;;;;17.67;17.67;;;;;;;;5133343;27;8875;-65
2023/08/14 07:41:26;;;;;;;;;15.67;15.67;;;;;;;;5133886;27;8779;-66
2023/08/14 07:43:51;;;;;;;;;16.67;15.00;;;;;;;;5133802;27;8811;-65
2023/08/14 07:46:17;;;;;;;;;17.33;15.67;;;;;;;;5134060;27;8779;-66
2023/08/14 07:48:43;;;;;;;;;13.50;13.00;;;;;;;;5133969;27;8807;-71
2023/08/14 07:51:08;;;;;;;;;14.33;13.67;;;;;;;;5133745;27;8821;-67
2023/08/14 07:53:33;;;;;;;;;14.33;14.33;;;;;;;;5133718;27;8775;-67
2023/08/14 07:55:59;;;;;;;;;15.00;15.00;;;;;;;;5132446;27;8807;-67
2023/08/14 07:58:25;;;;;;;;;13.33;13.33;;;;;;;;5133826;27;8851;-67
2023/08/14 08:00:50;;;;;;;;;15.75;15.75;;;;;;;;5119759;27;8870;-67
2023/08/14 08:03:15;;;;;;;;;15.67;15.67;;;;;;;;5112827;28;8794;-67
2023/08/14 08:05:41;;;;;;;;;12.67;12.67;;;;;;;;5112546;28;8833;-66
2023/08/14 08:10:35;;;;;;;;;14.75;14.25;;;;;;;;5087960;28;8881;-70
2023/08/14 08:13:01;;;;;;;;;15.00;14.50;;;;;;;;5091234;28;8838;-72
2023/08/14 08:15:26;;;;;;;;;16.00;15.67;;;;;;;;5072823;28;8822;-75
2023/08/14 08:17:52;;;;;;;;;14.00;14.00;;;;;;;;5091080;28;8870;-71
2023/08/14 08:20:17;;;;;;;;;22.00;21.33;;;;;;;;5090395;28;8837;-77
2023/08/14 08:22:42;;;;;;;;;30.33;28.33;;;;;;;;5090813;28;8831;-75
2023/08/14 08:25:09;;;;;;;;;47.00;40.00;;;;;;;;5090576;28;8834;-76
2023/08/14 08:27:34;;;;;;;;;16.80;15.60;;;;;;;;5090968;28;9604;-79
2023/08/14 08:30:00;;;;;;;;;32.67;29.33;;;;;;;;5090837;28;8786;-73
2023/08/14 08:32:25;;;;;;;;;29.67;27.67;;;;;;;;5090970;28;8856;-72
2023/08/14 08:34:50;;;;;;;;;21.67;21.67;;;;;;;;5090764;28;8806;-70
2023/08/14 08:37:19;;;;;;;;;20.75;20.25;;;;;;;;5089680;28;9507;-71
2023/08/14 08:39:44;;;;;;;;;23.25;23.00;;;;;;;;5089501;28;8837;-69
2023/08/14 08:42:09;;;;;;;;;22.25;21.00;;;;;;;;5090504;28;8821;-72
2023/08/14 08:44:36;;;;;;;;;22.75;19.50;;;;;;;;5090788;28;8826;-67
2023/08/14 08:47:08;;;;;;;;;19.40;18.20;;;;;;;;5090796;28;8889;-69
2023/08/14 08:49:34;;;;;;;;;19.00;18.00;;;;;;;;5090184;28;8969;-69
2023/08/14 08:52:01;;;;;;;;;23.80;23.00;;;;;;;;5090216;28;8829;-67
2023/08/14 08:54:27;;;;;;;;;23.80;23.60;;;;;;;;5090547;28;8782;-68
2023/08/14 08:56:52;;;;;;;;;12.50;12.50;;;;;;;;5090583;28;9542;-65
2023/08/14 08:59:18;;;;;;;;;26.67;26.33;;;;;;;;5090433;28;8840;-68
2023/08/14 09:01:45;;;;;;;;;20.20;19.40;;;;;;;;5090433;28;8909;-68
2023/08/14 09:04:10;;;;;;;;;29.60;27.40;;;;;;;;5090379;28;8818;-66
2023/08/14 09:06:35;;;;;;;;;19.50;19.50;;;;;;;;5090050;28;8778;-68
2023/08/14 09:09:01;;;;;;;;;19.25;17.75;;;;;;;;5090218;28;8810;-66
2023/08/14 09:11:27;;;;;;;;;15.50;15.50;;;;;;;;5090126;28;8794;-68
2023/08/14 09:13:52;;;;;;;;;23.20;21.60;;;;;;;;5090030;28;8775;-69
2023/08/14 09:16:17;;;;;;;;;34.00;31.33;;;;;;;;5071842;28;8856;-72
2023/08/14 09:18:43;;;;;;;;;21.50;21.50;;;;;;;;5090020;28;9000;-71
2023/08/14 09:21:09;;;;;;;;;15.00;15.00;;;;;;;;5090031;28;8818;-70
2023/08/14 09:23:35;;;;;;;;;14.50;14.50;;;;;;;;5071449;28;9576;-71
2023/08/14 09:26:01;;;;;;;;;17.40;17.20;;;;;;;;5086357;28;8810;-71
2023/08/14 09:28:26;;;;;;;;;16.50;16.50;;;;;;;;5067454;28;8877;-71
2023/08/14 09:30:51;;;;;;;;;17.00;17.00;;;;;;;;5069565;28;8905;-70
2023/08/14 09:33:17;;;;;;;;;11.75;11.00;;;;;;;;5069596;28;8810;-71
2023/08/14 09:35:51;;;;;;;;;13.25;11.75;;;;;;;;5069745;28;8816;-67
2023/08/14 09:38:16;;;;;;;;;17.60;17.60;;;;;;;;5089518;28;8828;-67
2023/08/14 09:40:42;;;;;;;;;12.75;12.75;;;;;;;;5089833;28;9524;-67
2023/08/14 09:43:09;;;;;;;;;15.60;14.40;;;;;;;;5089876;28;8825;-66
2023/08/14 09:45:35;;;;;;;;;11.00;11.00;;;;;;;;5089611;28;8825;-68
2023/08/14 09:48:01;;;;;;;;;14.80;14.80;;;;;;;;5088275;28;8817;-66
2023/08/14 09:50:28;;;;;;;;;14.75;14.50;;;;;;;;5088820;28;8821;-67
2023/08/14 09:52:55;;;;;;;;;17.40;16.80;;;;;;;;5089121;28;8790;-67
2023/08/14 09:55:20;;;;;;;;;14.00;13.60;;;;;;;;5089662;28;9518;-67
2023/08/14 09:57:47;;;;;;;;;13.75;13.25;;;;;;;;5084778;28;8810;-66
2023/08/14 10:00:13;;;;;;;;;11.00;10.60;;;;;;;;5079599;28;8807;-67
2023/08/14 10:02:40;;;;;;;;;10.50;10.50;;;;;;;;5081556;28;8828;-67
2023/08/14 10:05:09;;;;;;;;;21.20;18.80;;;;;;;;5077879;28;8827;-67
2023/08/14 10:07:34;;;;;;;;;12.60;12.60;;;;;;;;5080270;28;8782;-66
2023/08/14 10:10:02;;;;;;;;;17.00;16.00;;;;;;;;5081224;28;9587;-66
2023/08/14 10:12:29;;;;;;;;;10.00;10.00;;;;;;;;5080381;28;8827;-67
2023/08/14 10:15:05;;;;;;;;;13.80;13.40;;;;;;;;5070438;28;8800;-67
2023/08/14 10:17:32;;;;;;;;;10.80;10.80;;;;;;;;5072988;28;8950;-67
2023/08/14 10:20:00;;;;;;;;;12.20;12.20;;;;;;;;5072819;28;8788;-65
2023/08/14 10:22:27;;;;;;;;;15.40;13.80;;;;;;;;5083386;28;8806;-66
2023/08/14 10:24:53;;;;;;;;;12.00;12.00;;;;;;;;5089099;28;8814;-66
2023/08/14 10:27:18;;;;;;;;;10.00;10.00;;;;;;;;5089173;28;8807;-68
2023/08/14 10:29:45;;;;;;;;;11.00;11.00;;;;;;;;5089201;28;11483;-66
2023/08/14 10:32:10;;;;;;;;;14.75;13.75;;;;;;;;5089134;28;8794;-67
2023/08/14 10:34:37;;;;;;;;;15.00;14.33;;;;;;;;5067702;28;9565;-67
2023/08/14 10:37:02;;;;;;;;;11.50;11.50;;;;;;;;5078364;28;8790;-67
2023/08/14 10:39:35;;;;;;;;;11.50;11.00;;;;;;;;5079363;28;8809;-68
2023/08/14 10:42:03;;;;;;;;;17.00;16.25;;;;;;;;5079191;28;8827;-68
2023/08/14 10:44:34;;;;;;;;;16.00;15.00;;;;;;;;5077309;28;8824;-72
2023/08/14 10:47:06;;;;;;;;;13.80;13.80;;;;;;;;5077936;28;8771;-68
2023/08/14 10:49:45;;;;;;;;;25.00;23.50;;;;;;;;5073855;28;8784;-67
2023/08/14 10:52:14;;;;;;;;;16.00;15.00;;;;;;;;5080284;28;8794;-68
2023/08/14 10:54:40;;;;;;;;;10.50;10.50;;;;;;;;5089037;28;8794;-67
2023/08/14 10:57:07;;;;;;;;;11.00;11.00;;;;;;;;5088900;28;8798;-67
2023/08/14 10:59:33;;;;;;;;;34.75;31.00;;;;;;;;5088963;28;8790;-71
2023/08/14 11:02:05;;;;;;;;;12.75;12.75;;;;;;;;5089973;28;8798;-68
2023/08/14 11:04:35;;;;;;;;;11.00;11.00;;;;;;;;5092532;28;8932;-69
2023/08/14 11:07:02;;;;;;;;;27.50;27.25;;;;;;;;5092483;28;8790;-71
2023/08/14 11:09:34;;;;;;;;;12.00;12.00;;;;;;;;5091780;28;8786;-71
2023/08/14 11:12:05;;;;;;;;;16.75;15.75;;;;;;;;5092386;28;8901;-69
2023/08/14 11:14:33;;;;;;;;;14.60;11.80;;;;;;;;5092186;28;8897;-68
2023/08/14 11:16:59;;;;;;;;;11.75;11.75;;;;;;;;5089571;28;8830;-68
2023/08/14 11:19:27;;;;;;;;;10.33;10.00;;;;;;;;5079460;28;8820;-66
2023/08/14 11:21:53;;;;;;;;;11.00;10.00;;;;;;;;5079327;28;8796;-67
2023/08/14 11:24:18;;;;;;;;;12.67;12.33;;;;;;;;5071562;28;8934;-66
2023/08/14 11:26:44;;;;;;;;;9.00;9.00;;;;;;;;5071708;28;8824;-67
2023/08/14 11:29:09;;;;;;;;;9.33;9.00;;;;;;;;5063200;28;8804;-68
2023/08/14 11:34:09;;;;;;;;;11.25;11.25;;;;;;;;5640958;23;8876;-66
2023/08/14 11:36:38;;;;;;;;;10.00;9.67;;;;;;;;5021555;28;8785;-69
2023/08/14 11:39:04;;;;;;;;;9.50;9.50;;;;;;;;5005209;28;8817;-69
2023/08/14 11:41:32;;;;;;;;;10.67;10.67;;;;;;;;5020323;28;8829;-67
2023/08/14 11:43:57;;;;;;;;;10.00;10.00;;;;;;;;5019274;28;8815;-70
2023/08/14 11:46:23;;;;;;;;;11.00;10.33;;;;;;;;5012499;28;8929;-74
2023/08/14 11:48:48;;;;;;;;;12.00;10.67;;;;;;;;5012284;28;8807;-70
2023/08/14 11:51:14;;;;;;;;;13.00;10.00;;;;;;;;4994392;28;9638;-71
2023/08/14 11:53:39;;;;;;;;;12.67;12.00;;;;;;;;5012516;28;8821;-69
2023/08/14 11:56:05;;;;;;;;;12.00;10.00;;;;;;;;5027932;28;8788;-72
2023/08/14 11:58:31;;;;;;;;;11.33;11.33;;;;;;;;5031816;28;8812;-69
2023/08/14 12:00:56;;;;;;;;;12.00;12.00;;;;;;;;5023185;28;8818;-68
2023/08/14 12:03:21;;;;;;;;;10.33;10.33;;;;;;;;5013510;28;11495;-69
2023/08/14 12:05:47;;;;;;;;;12.67;12.67;;;;;;;;5022981;28;9565;-65
2023/08/14 12:08:13;;;;;;;;;25.00;23.33;;;;;;;;5032045;28;8780;-66
2023/08/14 12:10:43;;;;;;;;;12.00;12.00;;;;;;;;5028546;28;8838;-67
2023/08/14 12:13:09;;;;;;;;;14.75;14.25;;;;;;;;5013968;28;8834;-68
2023/08/14 12:15:37;;;;;;;;;15.00;14.75;;;;;;;;5031650;28;8894;-66
2023/08/14 12:18:02;;;;;;;;;17.00;17.00;;;;;;;;5031696;28;8896;-67
2023/08/14 12:20:30;;;;;;;;;21.00;19.67;;;;;;;;5031286;28;8895;-64
2023/08/14 12:23:10;;;;;;;;;12.75;12.75;;;;;;;;5031599;28;8801;-65
2023/08/14 12:25:37;;;;;;;;;12.50;12.50;;;;;;;;5031348;28;8909;-64
2023/08/14 12:28:03;;;;;;;;;8.00;8.00;;;;;;;;5031691;28;8791;-66
2023/08/14 12:30:28;;;;;;;;;10.67;10.00;;;;;;;;5021485;28;8915;-65
2023/08/14 12:32:53;;;;;;;;;12.00;12.00;;;;;;;;5021180;28;8791;-65
2023/08/14 12:35:19;;;;;;;;;13.33;13.33;;;;;;;;5024329;28;8890;-68
2023/08/14 12:37:44;;;;;;;;;8.00;8.00;;;;;;;;5024783;28;8791;-67
2023/08/14 12:40:10;;;;;;;;;13.33;12.67;;;;;;;;5027546;28;8809;-67
2023/08/14 12:42:36;;;;;;;;;11.00;11.00;;;;;;;;5031613;28;9586;-66
2023/08/14 12:45:02;;;;;;;;;13.33;12.67;;;;;;;;5031459;28;8839;-66
2023/08/14 12:47:27;;;;;;;;;16.00;14.00;;;;;;;;5031366;28;8895;-64
2023/08/14 12:49:52;;;;;;;;;10.33;10.00;;;;;;;;5031137;28;8785;-66
2023/08/14 12:52:18;;;;;;;;;10.00;10.00;;;;;;;;5031065;28;9553;-66
2023/08/14 12:54:43;;;;;;;;;13.67;12.33;;;;;;;;5031281;28;8785;-67
2023/08/14 12:57:08;;;;;;;;;14.67;12.33;;;;;;;;5031157;28;8808;-66
2023/08/14 12:59:34;;;;;;;;;12.00;12.00;;;;;;;;5031201;28;8772;-67
2023/08/14 13:01:59;;;;;;;;;11.00;11.00;;;;;;;;5031004;28;8781;-67
2023/08/14 13:04:24;;;;;;;;;13.00;12.00;;;;;;;;5021736;28;8898;-66
2023/08/14 13:06:50;;;;;;;;;10.00;10.00;;;;;;;;5022095;28;8901;-65
2023/08/14 13:09:15;;;;;;;;;11.33;11.00;;;;;;;;5020161;28;8793;-66
2023/08/14 13:11:41;;;;;;;;;8.67;8.00;;;;;;;;5021362;28;9168;-64
2023/08/14 13:14:06;;;;;;;;;7.00;7.00;;;;;;;;5019427;28;9060;-65
2023/08/14 13:16:32;;;;;;;;;9.00;9.00;;;;;;;;5020683;28;9502;-64
2023/08/14 13:18:57;;;;;;;;;8.67;8.33;;;;;;;;5002963;28;8802;-64
2023/08/14 13:21:23;;;;;;;;;8.67;8.33;;;;;;;;5001282;28;8826;-65
2023/08/14 13:23:48;;;;;;;;;8.00;8.00;;;;;;;;5019438;28;8910;-66
2023/08/14 13:26:14;;;;;;;;;8.00;8.00;;;;;;;;5019857;28;8844;-64
2023/08/14 13:28:40;;;;;;;;;7.00;7.00;;;;;;;;5021033;28;8881;-65
2023/08/14 13:31:06;;;;;;;;;7.33;7.33;;;;;;;;5019244;28;8807;-66
2023/08/14 13:33:31;;;;;;;;;6.00;6.00;;;;;;;;5020692;28;11592;-66
2023/08/14 13:35:57;;;;;;;;;8.00;7.00;;;;;;;;5021031;28;8935;-65
2023/08/14 13:38:22;;;;;;;;;7.67;7.67;;;;;;;;5021114;28;8797;-66
2023/08/14 13:40:47;;;;;;;;;5.33;5.00;;;;;;;;5019157;28;8949;-66
2023/08/14 13:43:13;;;;;;;;;7.00;7.00;;;;;;;;5012742;28;8811;-64
2023/08/14 13:45:38;;;;;;;;;6.00;6.00;;;;;;;;5010627;28;8838;-64
2023/08/14 13:48:04;;;;;;;;;5.00;5.00;;;;;;;;5010842;28;8774;-64
2023/08/14 13:50:33;;;;;;;;;6.00;6.00;;;;;;;;5010469;28;8802;-65
2023/08/14 13:52:58;;;;;;;;;6.50;6.50;;;;;;;;5010539;28;8806;-66
2023/08/14 13:55:25;;;;;;;;;8.67;7.33;;;;;;;;5010478;28;8790;-66
2023/08/14 13:57:50;;;;;;;;;8.25;8.25;;;;;;;;5015842;28;8831;-65
2023/08/14 14:00:15;;;;;;;;;8.00;8.00;;;;;;;;5016020;28;8898;-63
2023/08/14 14:02:41;;;;;;;;;9.00;9.00;;;;;;;;5015543;28;8809;-64
2023/08/14 14:05:06;;;;;;;;;8.00;7.25;;;;;;;;5019605;28;8824;-65
2023/08/14 14:07:32;;;;;;;;;8.33;8.33;;;;;;;;5020852;28;8801;-63
2023/08/14 14:09:57;;;;;;;;;7.67;7.67;;;;;;;;5021168;28;8889;-64
2023/08/14 14:12:22;;;;;;;;;9.00;9.00;;;;;;;;5021661;28;8784;-64
2023/08/14 14:14:48;;;;;;;;;8.00;8.00;;;;;;;;5023659;28;8809;-67
2023/08/14 14:17:13;;;;;;;;;8.67;7.00;;;;;;;;5020745;28;8768;-64
2023/08/14 14:19:39;;;;;;;;;7.33;7.33;;;;;;;;5017972;28;8890;-66
2023/08/14 14:22:05;;;;;;;;;8.33;8.00;;;;;;;;5019089;28;8813;-66
2023/08/14 14:24:31;;;;;;;;;9.33;8.33;;;;;;;;5002251;28;9554;-65
2023/08/14 14:26:57;;;;;;;;;9.50;8.00;;;;;;;;5023626;28;8801;-65
2023/08/14 14:29:23;;;;;;;;;7.33;6.00;;;;;;;;5029998;28;8804;-66
2023/08/14 14:31:48;;;;;;;;;7.00;7.00;;;;;;;;5030060;28;8812;-65